156-й км Убкуа

Карта отелей и гостиниц, располагающихся рядом с аэропортом 156-й км Убкуа :

156-й км Убкуа Ханты-Мансийский автономный округ - Югра 59° 58' 5.52" N, 71° 2' 36.42" E
156-й км Убкуа Ханты-Мансийский автономный округ - Югра 59° 58' 5.52" N, 71° 2' 36.42" E
Код аэродрома ИКАО
HDW0
Код аэродрома RU
ХДВ0
Координаты
N59.96820° E071.04345°
Превышение над уровнем моря
80
Основная полоса
04/22
Курс магнитный
040,2/220,2
Длина основной ВПП
15
Ширина основной ВПП
15
Покрытие основной ВПП
Твёрдое
Освещение ВПП
Нет
Тип: 
Вертодром
Класс аэродрома: 
Принадлежность: 
ГА
Статус: 
Действующий
Сайт: 
E-mail аэродрома: 
Страна: 
Россия
Регион: 
Ханты-Мансийский автономный округ - Югра
Город: 
Дополнительная информация: 

Найти трансфер

С помощью этой формы Вы можете найти трансфер из аэропорта 156-й км Убкуа в город, аэропорт или вокзал:

Карта места

Javascript is required to view this map.

Погода в аэропортах:

Авиационная погода в Вардё

Регион: 
Погода METAR: 
ENSS 060720Z 25031KT 9999 DRSN FEW043 BKN095 M06/M11 Q1015 RMK WIND 500FT 25038KT
Время наблюдения
2021-12-06T07:20:00Z
Температура C
-6.0
Точка росы
-11.0
Направление ветра
250
Скорость ветра (узлы)
31
Метео видимость
6.21
Явления погоды
DRSN
Условия полета
VFR

Авиационная погода в Архангельске

Регион: 
Погода METAR: 
ULAA 060700Z 23001MPS 9000 -SHSN OVC021CB M11/M13 Q1028 R08/490339 NOSIG RMK QFE770/1027
Время наблюдения
2021-12-06T07:00:00Z
Температура C
-11.0
Точка росы
-13.0
Направление ветра
230
Скорость ветра (узлы)
2
Метео видимость
5.59
Явления погоды
-SHSN
Условия полета
MVFR
Аэропорт подробнее: 

Авиационная погода в Петропавловске

Регион: 
Погода METAR: 
UACP 060800Z 22004MPS 2400 SN BKN008 OVC033 M03/M04 Q1013 NOSIG RMK QFE747/0996
Время наблюдения
2021-12-06T08:00:00Z
Температура C
-3.0
Точка росы
-4.0
Направление ветра
220
Скорость ветра (узлы)
8
Метео видимость
1.49
Явления погоды
SN
Условия полета
IFR
Аэропорт подробнее: 

Авиационная погода в Усть-Каменогорске

Регион: 
Погода METAR: 
UASK 060800Z 00000MPS 1500 R30/1500N BR PRFG FEW005 M03/M04 Q1022 NOSIG RMK QBB150 QFE741/0988
Время наблюдения
2021-12-06T08:00:00Z
Температура C
-3.0
Точка росы
-4.0
Направление ветра
0
Скорость ветра (узлы)
0
Метео видимость
0.93
Явления погоды
BR PRFG
Условия полета
LIFR
Аэропорт подробнее: